sensor_id;sensor_type;location;lat;lon;timestamp;P1;durP1;ratioP1;P2;durP2;ratioP2
40322;SDS011;26030;51.164;17.100;2023-03-01T00:02:42;24.50;;;18.00;;
40322;SDS011;26030;51.164;17.100;2023-03-01T00:07:46;22.60;;;17.60;;
40322;SDS011;26030;51.164;17.100;2023-03-01T00:12:51;25.40;;;18.40;;
40322;SDS011;26030;51.164;17.100;2023-03-01T00:17:55;22.30;;;17.60;;
40322;SDS011;26030;51.164;17.100;2023-03-01T00:22:59;21.10;;;16.60;;
40322;SDS011;26030;51.164;17.100;2023-03-01T00:28:04;21.70;;;17.30;;
40322;SDS011;26030;51.164;17.100;2023-03-01T00:33:08;25.40;;;18.80;;
40322;SDS011;26030;51.164;17.100;2023-03-01T00:38:12;23.10;;;16.90;;
40322;SDS011;26030;51.164;17.100;2023-03-01T00:43:17;21.50;;;16.80;;
40322;SDS011;26030;51.164;17.100;2023-03-01T00:48:21;22.60;;;17.70;;
40322;SDS011;26030;51.164;17.100;2023-03-01T00:53:26;23.30;;;17.20;;
40322;SDS011;26030;51.164;17.100;2023-03-01T00:58:30;23.00;;;17.30;;
40322;SDS011;26030;51.164;17.100;2023-03-01T01:03:34;21.80;;;17.30;;
40322;SDS011;26030;51.164;17.100;2023-03-01T01:08:39;23.30;;;16.60;;
40322;SDS011;26030;51.164;17.100;2023-03-01T01:13:45;23.10;;;17.10;;
40322;SDS011;26030;51.164;17.100;2023-03-01T01:18:50;20.20;;;16.80;;
40322;SDS011;26030;51.164;17.100;2023-03-01T01:23:55;21.20;;;16.80;;
40322;SDS011;26030;51.164;17.100;2023-03-01T01:29:00;19.20;;;16.30;;
40322;SDS011;26030;51.164;17.100;2023-03-01T01:34:06;19.50;;;15.50;;
40322;SDS011;26030;51.164;17.100;2023-03-01T01:39:11;20.20;;;16.90;;
40322;SDS011;26030;51.164;17.100;2023-03-01T01:49:32;20.90;;;15.60;;
40322;SDS011;26030;51.164;17.100;2023-03-01T02:00:00;17.70;;;14.90;;
40322;SDS011;26030;51.164;17.100;2023-03-01T02:05:38;19.20;;;15.40;;
40322;SDS011;26030;51.164;17.100;2023-03-01T02:10:45;19.50;;;15.20;;
40322;SDS011;26030;51.164;17.100;2023-03-01T02:15:50;20.80;;;15.10;;
40322;SDS011;26030;51.164;17.100;2023-03-01T02:21:04;18.00;;;15.50;;
40322;SDS011;26030;51.164;17.100;2023-03-01T02:26:21;18.10;;;14.40;;
40322;SDS011;26030;51.164;17.100;2023-03-01T02:31:28;20.80;;;16.20;;
40322;SDS011;26030;51.164;17.100;2023-03-01T02:37:05;19.90;;;15.60;;
40322;SDS011;26030;51.164;17.100;2023-03-01T02:42:14;18.90;;;14.70;;
40322;SDS011;26030;51.164;17.100;2023-03-01T02:47:19;19.40;;;14.80;;
40322;SDS011;26030;51.164;17.100;2023-03-01T02:52:47;19.40;;;14.80;;
40322;SDS011;26030;51.164;17.100;2023-03-01T02:57:56;18.20;;;14.20;;
40322;SDS011;26030;51.164;17.100;2023-03-01T03:03:01;18.90;;;15.10;;
40322;SDS011;26030;51.164;17.100;2023-03-01T03:08:05;17.50;;;14.80;;
40322;SDS011;26030;51.164;17.100;2023-03-01T03:13:13;18.10;;;15.50;;
40322;SDS011;26030;51.164;17.100;2023-03-01T03:18:18;16.40;;;13.90;;
40322;SDS011;26030;51.164;17.100;2023-03-01T03:23:22;18.00;;;14.60;;
40322;SDS011;26030;51.164;17.100;2023-03-01T03:28:26;17.40;;;13.80;;
40322;SDS011;26030;51.164;17.100;2023-03-01T03:33:30;17.80;;;14.90;;
40322;SDS011;26030;51.164;17.100;2023-03-01T03:38:34;17.80;;;15.00;;
40322;SDS011;26030;51.164;17.100;2023-03-01T03:43:40;19.20;;;14.60;;
40322;SDS011;26030;51.164;17.100;2023-03-01T03:48:46;17.70;;;14.80;;
40322;SDS011;26030;51.164;17.100;2023-03-01T03:53:50;19.30;;;15.00;;
40322;SDS011;26030;51.164;17.100;2023-03-01T03:58:54;17.90;;;15.10;;
40322;SDS011;26030;51.164;17.100;2023-03-01T04:03:58;17.60;;;14.20;;
40322;SDS011;26030;51.164;17.100;2023-03-01T04:09:07;19.40;;;15.70;;
40322;SDS011;26030;51.164;17.100;2023-03-01T04:14:11;22.10;;;15.20;;
40322;SDS011;26030;51.164;17.100;2023-03-01T04:19:15;22.20;;;15.00;;
40322;SDS011;26030;51.164;17.100;2023-03-01T04:24:20;22.50;;;14.30;;
40322;SDS011;26030;51.164;17.100;2023-03-01T04:29:25;22.60;;;15.70;;
40322;SDS011;26030;51.164;17.100;2023-03-01T04:34:30;20.70;;;15.90;;
40322;SDS011;26030;51.164;17.100;2023-03-01T04:39:34;19.00;;;14.00;;
40322;SDS011;26030;51.164;17.100;2023-03-01T04:44:49;19.70;;;15.00;;
40322;SDS011;26030;51.164;17.100;2023-03-01T04:49:55;20.50;;;16.00;;
40322;SDS011;26030;51.164;17.100;2023-03-01T04:54:59;30.50;;;15.00;;
40322;SDS011;26030;51.164;17.100;2023-03-01T05:00:04;21.00;;;16.80;;
40322;SDS011;26030;51.164;17.100;2023-03-01T05:05:27;22.90;;;16.50;;
40322;SDS011;26030;51.164;17.100;2023-03-01T05:10:33;22.80;;;14.70;;
40322;SDS011;26030;51.164;17.100;2023-03-01T05:15:39;19.50;;;15.30;;
40322;SDS011;26030;51.164;17.100;2023-03-01T05:20:43;21.00;;;15.50;;
40322;SDS011;26030;51.164;17.100;2023-03-01T05:25:48;21.70;;;14.80;;
40322;SDS011;26030;51.164;17.100;2023-03-01T05:30:52;20.50;;;15.50;;
40322;SDS011;26030;51.164;17.100;2023-03-01T05:36:00;22.30;;;15.30;;
40322;SDS011;26030;51.164;17.100;2023-03-01T05:41:04;21.70;;;15.80;;
40322;SDS011;26030;51.164;17.100;2023-03-01T05:46:08;19.70;;;15.70;;
40322;SDS011;26030;51.164;17.100;2023-03-01T05:51:16;21.00;;;16.40;;
40322;SDS011;26030;51.164;17.100;2023-03-01T05:56:21;20.20;;;15.20;;
40322;SDS011;26030;51.164;17.100;2023-03-01T06:01:26;19.40;;;15.60;;
40322;SDS011;26030;51.164;17.100;2023-03-01T06:06:34;19.10;;;16.10;;
40322;SDS011;26030;51.164;17.100;2023-03-01T06:11:40;19.80;;;15.50;;
40322;SDS011;26030;51.164;17.100;2023-03-01T06:16:46;18.90;;;15.20;;
40322;SDS011;26030;51.164;17.100;2023-03-01T06:21:50;18.40;;;15.10;;
40322;SDS011;26030;51.164;17.100;2023-03-01T06:26:54;18.20;;;15.10;;
40322;SDS011;26030;51.164;17.100;2023-03-01T06:31:59;19.20;;;15.10;;
40322;SDS011;26030;51.164;17.100;2023-03-01T06:37:04;18.30;;;15.10;;
40322;SDS011;26030;51.164;17.100;2023-03-01T06:42:09;20.30;;;16.40;;
40322;SDS011;26030;51.164;17.100;2023-03-01T06:47:16;19.20;;;15.80;;
40322;SDS011;26030;51.164;17.100;2023-03-01T06:52:20;19.30;;;15.70;;
40322;SDS011;26030;51.164;17.100;2023-03-01T06:57:24;18.60;;;15.80;;
40322;SDS011;26030;51.164;17.100;2023-03-01T07:02:28;22.10;;;16.40;;
40322;SDS011;26030;51.164;17.100;2023-03-01T07:07:32;19.40;;;15.50;;
40322;SDS011;26030;51.164;17.100;2023-03-01T07:12:36;20.00;;;15.90;;
40322;SDS011;26030;51.164;17.100;2023-03-01T07:17:40;19.70;;;16.70;;
40322;SDS011;26030;51.164;17.100;2023-03-01T07:22:44;18.30;;;15.30;;
40322;SDS011;26030;51.164;17.100;2023-03-01T07:27:52;17.10;;;14.50;;
40322;SDS011;26030;51.164;17.100;2023-03-01T07:32:57;18.80;;;15.10;;
40322;SDS011;26030;51.164;17.100;2023-03-01T07:38:01;21.00;;;15.60;;
40322;SDS011;26030;51.164;17.100;2023-03-01T07:43:05;24.80;;;15.50;;
40322;SDS011;26030;51.164;17.100;2023-03-01T07:48:10;20.70;;;15.20;;
40322;SDS011;26030;51.164;17.100;2023-03-01T07:53:14;20.20;;;14.30;;
40322;SDS011;26030;51.164;17.100;2023-03-01T07:58:18;17.80;;;14.10;;
40322;SDS011;26030;51.164;17.100;2023-03-01T08:03:23;18.00;;;14.80;;
40322;SDS011;26030;51.164;17.100;2023-03-01T08:08:27;21.90;;;14.80;;
40322;SDS011;26030;51.164;17.100;2023-03-01T08:13:32;21.40;;;13.50;;
40322;SDS011;26030;51.164;17.100;2023-03-01T08:18:37;21.40;;;15.00;;
40322;SDS011;26030;51.164;17.100;2023-03-01T08:23:42;21.80;;;14.80;;
40322;SDS011;26030;51.164;17.100;2023-03-01T08:28:48;20.50;;;14.50;;
40322;SDS011;26030;51.164;17.100;2023-03-01T08:33:56;18.90;;;14.20;;
40322;SDS011;26030;51.164;17.100;2023-03-01T08:39:01;18.70;;;13.80;;
40322;SDS011;26030;51.164;17.100;2023-03-01T08:44:06;16.50;;;12.90;;
40322;SDS011;26030;51.164;17.100;2023-03-01T08:49:15;21.40;;;13.80;;
40322;SDS011;26030;51.164;17.100;2023-03-01T08:54:21;22.00;;;13.60;;
40322;SDS011;26030;51.164;17.100;2023-03-01T08:59:25;16.20;;;13.60;;
40322;SDS011;26030;51.164;17.100;2023-03-01T09:04:30;16.80;;;13.90;;
40322;SDS011;26030;51.164;17.100;2023-03-01T09:09:36;15.80;;;13.50;;
40322;SDS011;26030;51.164;17.100;2023-03-01T09:14:40;16.70;;;12.90;;
40322;SDS011;26030;51.164;17.100;2023-03-01T09:19:45;16.30;;;13.30;;
40322;SDS011;26030;51.164;17.100;2023-03-01T09:24:49;14.40;;;12.70;;
40322;SDS011;26030;51.164;17.100;2023-03-01T09:29:53;16.40;;;12.80;;
40322;SDS011;26030;51.164;17.100;2023-03-01T09:34:59;20.40;;;14.30;;
40322;SDS011;26030;51.164;17.100;2023-03-01T09:40:19;15.20;;;13.20;;
40322;SDS011;26030;51.164;17.100;2023-03-01T09:50:39;13.80;;;12.40;;
40322;SDS011;26030;51.164;17.100;2023-03-01T10:00:56;14.50;;;12.20;;
40322;SDS011;26030;51.164;17.100;2023-03-01T10:06:21;14.00;;;11.70;;
40322;SDS011;26030;51.164;17.100;2023-03-01T10:11:42;16.30;;;12.60;;
40322;SDS011;26030;51.164;17.100;2023-03-01T10:16:55;17.30;;;12.30;;
40322;SDS011;26030;51.164;17.100;2023-03-01T10:22:18;14.80;;;11.80;;
40322;SDS011;26030;51.164;17.100;2023-03-01T10:27:54;14.50;;;11.60;;
40322;SDS011;26030;51.164;17.100;2023-03-01T10:38:11;12.50;;;11.20;;
40322;SDS011;26030;51.164;17.100;2023-03-01T10:43:15;14.50;;;11.40;;
40322;SDS011;26030;51.164;17.100;2023-03-01T10:48:22;12.50;;;10.70;;
40322;SDS011;26030;51.164;17.100;2023-03-01T10:53:36;13.20;;;10.20;;
40322;SDS011;26030;51.164;17.100;2023-03-01T10:59:00;13.80;;;11.40;;
40322;SDS011;26030;51.164;17.100;2023-03-01T11:09:19;11.40;;;10.20;;
40322;SDS011;26030;51.164;17.100;2023-03-01T11:14:26;12.10;;;10.80;;
40322;SDS011;26030;51.164;17.100;2023-03-01T11:19:32;12.90;;;10.40;;
40322;SDS011;26030;51.164;17.100;2023-03-01T11:29:55;11.20;;;10.00;;
40322;SDS011;26030;51.164;17.100;2023-03-01T11:35:45;11.90;;;10.70;;
40322;SDS011;26030;51.164;17.100;2023-03-01T11:45:51;11.60;;;10.40;;
40322;SDS011;26030;51.164;17.100;2023-03-01T11:51:05;10.60;;;9.60;;
40322;SDS011;26030;51.164;17.100;2023-03-01T11:56:40;10.40;;;9.30;;
40322;SDS011;26030;51.164;17.100;2023-03-01T12:07:26;10.20;;;9.20;;
40322;SDS011;26030;51.164;17.100;2023-03-01T12:28:59;10.10;;;9.10;;
40322;SDS011;26030;51.164;17.100;2023-03-01T12:40:01;9.40;;;8.50;;
40322;SDS011;26030;51.164;17.100;2023-03-01T12:45:23;11.20;;;8.80;;
40322;SDS011;26030;51.164;17.100;2023-03-01T12:55:43;8.80;;;7.90;;
40322;SDS011;26030;51.164;17.100;2023-03-01T13:01:08;9.50;;;8.50;;
40322;SDS011;26030;51.164;17.100;2023-03-01T13:06:44;9.30;;;8.30;;
40322;SDS011;26030;51.164;17.100;2023-03-01T13:11:49;11.80;;;9.40;;
40322;SDS011;26030;51.164;17.100;2023-03-01T13:16:54;10.00;;;9.00;;
40322;SDS011;26030;51.164;17.100;2023-03-01T13:21:59;10.20;;;9.20;;
40322;SDS011;26030;51.164;17.100;2023-03-01T13:32:34;9.30;;;8.40;;
40322;SDS011;26030;51.164;17.100;2023-03-01T13:37:49;9.50;;;8.60;;
40322;SDS011;26030;51.164;17.100;2023-03-01T13:42:54;10.30;;;9.30;;
40322;SDS011;26030;51.164;17.100;2023-03-01T13:48:29;8.70;;;7.90;;
40322;SDS011;26030;51.164;17.100;2023-03-01T13:53:38;8.20;;;7.40;;
40322;SDS011;26030;51.164;17.100;2023-03-01T13:59:05;8.60;;;7.80;;
40322;SDS011;26030;51.164;17.100;2023-03-01T14:04:23;11.50;;;7.70;;
40322;SDS011;26030;51.164;17.100;2023-03-01T14:09:29;8.90;;;8.00;;
40322;SDS011;26030;51.164;17.100;2023-03-01T14:14:44;8.30;;;7.60;;
40322;SDS011;26030;51.164;17.100;2023-03-01T14:19:56;8.50;;;7.60;;
40322;SDS011;26030;51.164;17.100;2023-03-01T14:25:05;8.90;;;7.90;;
40322;SDS011;26030;51.164;17.100;2023-03-01T14:30:15;8.70;;;7.80;;
40322;SDS011;26030;51.164;17.100;2023-03-01T14:35:26;8.10;;;7.30;;
40322;SDS011;26030;51.164;17.100;2023-03-01T14:40:34;8.60;;;7.70;;
40322;SDS011;26030;51.164;17.100;2023-03-01T14:45:38;7.90;;;7.20;;
40322;SDS011;26030;51.164;17.100;2023-03-01T14:50:44;8.50;;;7.60;;
40322;SDS011;26030;51.164;17.100;2023-03-01T14:55:52;8.70;;;7.80;;
40322;SDS011;26030;51.164;17.100;2023-03-01T15:01:03;8.20;;;7.30;;
40322;SDS011;26030;51.164;17.100;2023-03-01T15:06:08;9.00;;;8.10;;
40322;SDS011;26030;51.164;17.100;2023-03-01T15:11:20;8.30;;;7.30;;
40322;SDS011;26030;51.164;17.100;2023-03-01T15:16:31;8.80;;;7.50;;
40322;SDS011;26030;51.164;17.100;2023-03-01T15:21:38;10.50;;;7.30;;
40322;SDS011;26030;51.164;17.100;2023-03-01T15:26:44;8.50;;;6.90;;
40322;SDS011;26030;51.164;17.100;2023-03-01T15:37:01;7.60;;;6.90;;
40322;SDS011;26030;51.164;17.100;2023-03-01T15:42:08;8.20;;;7.10;;
40322;SDS011;26030;51.164;17.100;2023-03-01T15:47:31;7.80;;;6.90;;
40322;SDS011;26030;51.164;17.100;2023-03-01T15:52:40;8.50;;;6.90;;
40322;SDS011;26030;51.164;17.100;2023-03-01T15:57:45;7.60;;;6.80;;
40322;SDS011;26030;51.164;17.100;2023-03-01T16:02:49;8.40;;;6.80;;
40322;SDS011;26030;51.164;17.100;2023-03-01T16:07:54;8.10;;;6.90;;
40322;SDS011;26030;51.164;17.100;2023-03-01T16:12:59;10.60;;;6.50;;
40322;SDS011;26030;51.164;17.100;2023-03-01T16:18:04;9.70;;;7.00;;
40322;SDS011;26030;51.164;17.100;2023-03-01T16:23:14;14.50;;;7.90;;
40322;SDS011;26030;51.164;17.100;2023-03-01T16:28:22;14.60;;;6.60;;
40322;SDS011;26030;51.164;17.100;2023-03-01T16:33:28;9.70;;;7.00;;
40322;SDS011;26030;51.164;17.100;2023-03-01T16:38:39;15.30;;;8.90;;
40322;SDS011;26030;51.164;17.100;2023-03-01T16:43:46;13.40;;;8.40;;
40322;SDS011;26030;51.164;17.100;2023-03-01T16:48:52;10.70;;;8.10;;
40322;SDS011;26030;51.164;17.100;2023-03-01T16:53:58;11.10;;;8.50;;
40322;SDS011;26030;51.164;17.100;2023-03-01T16:59:03;9.90;;;8.00;;
40322;SDS011;26030;51.164;17.100;2023-03-01T17:04:13;11.70;;;7.60;;
40322;SDS011;26030;51.164;17.100;2023-03-01T17:09:17;12.30;;;7.80;;
40322;SDS011;26030;51.164;17.100;2023-03-01T17:14:26;10.10;;;7.50;;
40322;SDS011;26030;51.164;17.100;2023-03-01T17:19:31;12.20;;;7.90;;
40322;SDS011;26030;51.164;17.100;2023-03-01T17:24:39;10.50;;;7.30;;
40322;SDS011;26030;51.164;17.100;2023-03-01T17:29:46;11.40;;;7.70;;
40322;SDS011;26030;51.164;17.100;2023-03-01T17:34:51;10.20;;;7.60;;
40322;SDS011;26030;51.164;17.100;2023-03-01T17:39:56;8.80;;;7.90;;
40322;SDS011;26030;51.164;17.100;2023-03-01T17:45:04;10.00;;;7.80;;
40322;SDS011;26030;51.164;17.100;2023-03-01T17:50:10;13.20;;;8.90;;
40322;SDS011;26030;51.164;17.100;2023-03-01T17:55:15;11.50;;;8.00;;
40322;SDS011;26030;51.164;17.100;2023-03-01T18:00:22;9.60;;;8.00;;
40322;SDS011;26030;51.164;17.100;2023-03-01T18:05:31;8.80;;;7.60;;
40322;SDS011;26030;51.164;17.100;2023-03-01T18:10:38;12.80;;;9.10;;
40322;SDS011;26030;51.164;17.100;2023-03-01T18:15:45;11.00;;;8.70;;
40322;SDS011;26030;51.164;17.100;2023-03-01T18:20:57;14.20;;;9.90;;
40322;SDS011;26030;51.164;17.100;2023-03-01T18:26:07;13.40;;;10.10;;
40322;SDS011;26030;51.164;17.100;2023-03-01T18:31:13;15.60;;;11.10;;
40322;SDS011;26030;51.164;17.100;2023-03-01T18:36:28;12.60;;;10.90;;
40322;SDS011;26030;51.164;17.100;2023-03-01T18:41:35;14.30;;;10.40;;
40322;SDS011;26030;51.164;17.100;2023-03-01T18:46:44;13.50;;;11.30;;
40322;SDS011;26030;51.164;17.100;2023-03-01T18:51:53;13.60;;;11.00;;
40322;SDS011;26030;51.164;17.100;2023-03-01T18:57:00;14.20;;;10.80;;
40322;SDS011;26030;51.164;17.100;2023-03-01T19:02:06;14.30;;;10.70;;
40322;SDS011;26030;51.164;17.100;2023-03-01T19:07:13;12.50;;;10.90;;
40322;SDS011;26030;51.164;17.100;2023-03-01T19:12:19;15.10;;;11.10;;
40322;SDS011;26030;51.164;17.100;2023-03-01T19:17:25;15.50;;;11.50;;
40322;SDS011;26030;51.164;17.100;2023-03-01T19:22:39;16.80;;;11.10;;
40322;SDS011;26030;51.164;17.100;2023-03-01T19:27:45;16.00;;;11.60;;
40322;SDS011;26030;51.164;17.100;2023-03-01T19:32:53;18.30;;;12.40;;
40322;SDS011;26030;51.164;17.100;2023-03-01T19:37:58;19.30;;;12.10;;
40322;SDS011;26030;51.164;17.100;2023-03-01T19:43:04;16.20;;;12.20;;
40322;SDS011;26030;51.164;17.100;2023-03-01T19:48:10;17.70;;;11.40;;
40322;SDS011;26030;51.164;17.100;2023-03-01T19:53:19;17.00;;;12.30;;
40322;SDS011;26030;51.164;17.100;2023-03-01T19:58:26;17.60;;;11.80;;
40322;SDS011;26030;51.164;17.100;2023-03-01T20:03:34;16.20;;;12.10;;
40322;SDS011;26030;51.164;17.100;2023-03-01T20:08:43;19.40;;;13.60;;
40322;SDS011;26030;51.164;17.100;2023-03-01T20:13:49;22.20;;;16.20;;
40322;SDS011;26030;51.164;17.100;2023-03-01T20:18:55;23.90;;;17.20;;
40322;SDS011;26030;51.164;17.100;2023-03-01T20:24:03;30.40;;;19.60;;
40322;SDS011;26030;51.164;17.100;2023-03-01T20:29:15;38.40;;;24.50;;
40322;SDS011;26030;51.164;17.100;2023-03-01T20:34:22;36.20;;;24.80;;
40322;SDS011;26030;51.164;17.100;2023-03-01T20:39:29;36.90;;;25.70;;
40322;SDS011;26030;51.164;17.100;2023-03-01T20:44:35;40.20;;;26.40;;
40322;SDS011;26030;51.164;17.100;2023-03-01T20:49:49;39.70;;;28.20;;
40322;SDS011;26030;51.164;17.100;2023-03-01T20:54:56;39.60;;;27.60;;
40322;SDS011;26030;51.164;17.100;2023-03-01T21:00:04;49.00;;;27.30;;
40322;SDS011;26030;51.164;17.100;2023-03-01T21:05:11;43.30;;;28.50;;
40322;SDS011;26030;51.164;17.100;2023-03-01T21:10:17;44.90;;;29.10;;
40322;SDS011;26030;51.164;17.100;2023-03-01T21:15:23;43.30;;;28.40;;
40322;SDS011;26030;51.164;17.100;2023-03-01T21:20:32;52.90;;;28.90;;
40322;SDS011;26030;51.164;17.100;2023-03-01T21:25:36;48.30;;;29.30;;
40322;SDS011;26030;51.164;17.100;2023-03-01T21:30:43;46.90;;;28.90;;
40322;SDS011;26030;51.164;17.100;2023-03-01T21:35:48;51.10;;;30.50;;
40322;SDS011;26030;51.164;17.100;2023-03-01T21:40:52;41.30;;;30.00;;
40322;SDS011;26030;51.164;17.100;2023-03-01T21:46:00;43.00;;;29.40;;
40322;SDS011;26030;51.164;17.100;2023-03-01T21:51:05;42.80;;;28.50;;
40322;SDS011;26030;51.164;17.100;2023-03-01T21:56:20;45.20;;;29.80;;
40322;SDS011;26030;51.164;17.100;2023-03-01T22:01:26;48.30;;;30.60;;
40322;SDS011;26030;51.164;17.100;2023-03-01T22:06:32;46.90;;;31.20;;
40322;SDS011;26030;51.164;17.100;2023-03-01T22:11:40;43.60;;;29.70;;
40322;SDS011;26030;51.164;17.100;2023-03-01T22:16:46;43.80;;;28.60;;
40322;SDS011;26030;51.164;17.100;2023-03-01T22:21:52;42.40;;;28.90;;
40322;SDS011;26030;51.164;17.100;2023-03-01T22:26:56;44.20;;;28.80;;
40322;SDS011;26030;51.164;17.100;2023-03-01T22:32:00;39.80;;;29.30;;
40322;SDS011;26030;51.164;17.100;2023-03-01T22:37:05;42.10;;;29.80;;
40322;SDS011;26030;51.164;17.100;2023-03-01T22:42:09;43.20;;;29.50;;
40322;SDS011;26030;51.164;17.100;2023-03-01T22:47:13;38.30;;;28.70;;
40322;SDS011;26030;51.164;17.100;2023-03-01T22:52:18;38.30;;;27.00;;
40322;SDS011;26030;51.164;17.100;2023-03-01T22:57:22;39.70;;;29.40;;
40322;SDS011;26030;51.164;17.100;2023-03-01T23:02:26;38.80;;;28.00;;
40322;SDS011;26030;51.164;17.100;2023-03-01T23:07:31;37.60;;;27.90;;
40322;SDS011;26030;51.164;17.100;2023-03-01T23:12:35;39.60;;;29.60;;
40322;SDS011;26030;51.164;17.100;2023-03-01T23:17:39;39.50;;;29.50;;
40322;SDS011;26030;51.164;17.100;2023-03-01T23:22:43;36.30;;;27.20;;
40322;SDS011;26030;51.164;17.100;2023-03-01T23:27:47;37.50;;;28.00;;
40322;SDS011;26030;51.164;17.100;2023-03-01T23:32:51;39.40;;;27.70;;
40322;SDS011;26030;51.164;17.100;2023-03-01T23:37:56;38.40;;;27.40;;
40322;SDS011;26030;51.164;17.100;2023-03-01T23:43:00;33.40;;;26.60;;
40322;SDS011;26030;51.164;17.100;2023-03-01T23:48:04;34.80;;;27.00;;
40322;SDS011;26030;51.164;17.100;2023-03-01T23:53:13;35.80;;;27.10;;
40322;SDS011;26030;51.164;17.100;2023-03-01T23:58:18;38.20;;;26.80;;
